Knokke-Heist, Belgium
Current Conditions -  °F | °C
As of 2:55 PM on Friday 24 Oct 2014 (Local Time) from EHFS Reporting Station
Haze Haze  
Wind Chill: 55°   Ceiling: 500
Heat Index: 55°   Visibility: 1.8mi
Dew Point: 54°   Wind: 18mph
Humidity: 94%   Direction: 190°S
Pressure: 30"   Gusts: NA
Location:  51.35°N, 3.27°E
Report Text: EHFS 241255Z AUTO 19016KT 2900 BR SCT004/// BKN005/// BKN006///13/12 Q1016
Loading
Personal Weather Stations






























Interactive Weather Map
Tropical Storm Tracking
New forecast layout! Learn more

10-Day Weather Forecast

Advertisements
Track Severe Weather on mobile